Rancho Cucamonga, California
Current Conditions -  °F | °C
As of 4:53 AM on Friday 31 Oct 2014 (Local Time) from KONT Reporting Station
Few Clouds Few Clouds  
Wind Chill: 57°   Ceiling: Unl
Heat Index: 57°   Visibility: 10mi
Dew Point: 53°   Wind: 0mph
Humidity: 87%   Direction: NA
Pressure: 29.95"   Gusts: NA
Location:  34.1°N, 117.57°W
Report Text: KONT 311153Z 00000KT 10SM FEW012 FEW200 14/12 A2995 RMK AO2 SLP132 T01390117 10178 20139 56006
Loading
Personal Weather Stations






























Interactive Weather Map New forecast layout! Learn more

10-Day Weather Forecast

Advertisements
Track Severe Weather on mobile